Terminal Aerodrome Forecast
Issued by NWS Medford, OR

Home | Current Version | Previous Version | Text Only | Print | Product List | Glossary On
Versions: 1 2 3 4 5 6 7 8 9 10 11 12 13 14 15 16 17 18 19 20
000
FTUS46 KMFR 302132 AAB
TAFMFR
TAF AMD
KMFR 302132Z 3022/3118 29010G20KT P6SM BKN060
     FM310300 VRB04KT P6SM SCT040 SCT200=

USA.gov is the U.S. government's official web portal to all federal, state and local government web resources and services.